sensor_id;sensor_type;location;lat;lon;timestamp;P1;durP1;ratioP1;P2;durP2;ratioP2
14076;SDS011;7114;51.100;13.998;2022-10-16T00:01:52;21.85;;;11.18;;
14076;SDS011;7114;51.100;13.998;2022-10-16T00:04:19;25.03;;;11.63;;
14076;SDS011;7114;51.100;13.998;2022-10-16T00:06:47;22.85;;;10.70;;
14076;SDS011;7114;51.100;13.998;2022-10-16T00:09:13;22.95;;;11.10;;
14076;SDS011;7114;51.100;13.998;2022-10-16T00:11:39;24.08;;;11.30;;
14076;SDS011;7114;51.100;13.998;2022-10-16T00:14:07;23.02;;;10.57;;
14076;SDS011;7114;51.100;13.998;2022-10-16T00:16:35;23.97;;;11.33;;
14076;SDS011;7114;51.100;13.998;2022-10-16T00:19:02;22.83;;;11.00;;
14076;SDS011;7114;51.100;13.998;2022-10-16T00:21:29;21.48;;;10.45;;
14076;SDS011;7114;51.100;13.998;2022-10-16T00:23:59;22.50;;;10.52;;
14076;SDS011;7114;51.100;13.998;2022-10-16T00:26:26;23.80;;;10.63;;
14076;SDS011;7114;51.100;13.998;2022-10-16T00:28:54;22.33;;;10.10;;
14076;SDS011;7114;51.100;13.998;2022-10-16T00:31:21;21.15;;;10.77;;
14076;SDS011;7114;51.100;13.998;2022-10-16T00:33:48;22.27;;;10.23;;
14076;SDS011;7114;51.100;13.998;2022-10-16T00:36:16;22.25;;;11.05;;
14076;SDS011;7114;51.100;13.998;2022-10-16T00:38:44;23.35;;;10.50;;
14076;SDS011;7114;51.100;13.998;2022-10-16T00:41:12;23.20;;;11.20;;
14076;SDS011;7114;51.100;13.998;2022-10-16T00:43:40;23.05;;;11.25;;
14076;SDS011;7114;51.100;13.998;2022-10-16T00:46:13;23.55;;;10.93;;
14076;SDS011;7114;51.100;13.998;2022-10-16T00:48:42;24.73;;;11.38;;
14076;SDS011;7114;51.100;13.998;2022-10-16T00:51:09;25.02;;;11.23;;
14076;SDS011;7114;51.100;13.998;2022-10-16T00:53:36;22.93;;;10.83;;
14076;SDS011;7114;51.100;13.998;2022-10-16T00:56:02;24.35;;;11.15;;
14076;SDS011;7114;51.100;13.998;2022-10-16T00:58:31;23.20;;;10.77;;
14076;SDS011;7114;51.100;13.998;2022-10-16T01:00:57;24.70;;;11.02;;
14076;SDS011;7114;51.100;13.998;2022-10-16T01:03:25;25.15;;;11.60;;
14076;SDS011;7114;51.100;13.998;2022-10-16T01:05:55;24.57;;;11.63;;
14076;SDS011;7114;51.100;13.998;2022-10-16T01:08:30;25.40;;;11.55;;
14076;SDS011;7114;51.100;13.998;2022-10-16T01:11:01;27.80;;;12.93;;
14076;SDS011;7114;51.100;13.998;2022-10-16T01:13:33;30.02;;;12.40;;
14076;SDS011;7114;51.100;13.998;2022-10-16T01:16:03;30.75;;;12.85;;
14076;SDS011;7114;51.100;13.998;2022-10-16T01:18:33;29.57;;;13.20;;
14076;SDS011;7114;51.100;13.998;2022-10-16T01:21:03;28.50;;;12.75;;
14076;SDS011;7114;51.100;13.998;2022-10-16T01:23:36;29.02;;;12.70;;
14076;SDS011;7114;51.100;13.998;2022-10-16T01:26:09;29.83;;;13.23;;
14076;SDS011;7114;51.100;13.998;2022-10-16T01:28:42;30.02;;;13.07;;
14076;SDS011;7114;51.100;13.998;2022-10-16T01:31:12;29.33;;;12.63;;
14076;SDS011;7114;51.100;13.998;2022-10-16T01:33:42;28.65;;;12.63;;
14076;SDS011;7114;51.100;13.998;2022-10-16T01:36:10;30.60;;;13.80;;
14076;SDS011;7114;51.100;13.998;2022-10-16T01:38:38;31.30;;;13.30;;
14076;SDS011;7114;51.100;13.998;2022-10-16T01:41:06;30.70;;;14.10;;
14076;SDS011;7114;51.100;13.998;2022-10-16T01:43:35;28.73;;;13.03;;
14076;SDS011;7114;51.100;13.998;2022-10-16T01:46:06;29.55;;;13.60;;
14076;SDS011;7114;51.100;13.998;2022-10-16T01:48:33;29.85;;;13.70;;
14076;SDS011;7114;51.100;13.998;2022-10-16T01:51:01;29.60;;;13.75;;
14076;SDS011;7114;51.100;13.998;2022-10-16T01:53:29;27.45;;;13.13;;
14076;SDS011;7114;51.100;13.998;2022-10-16T01:55:56;30.93;;;13.87;;
14076;SDS011;7114;51.100;13.998;2022-10-16T01:58:24;27.65;;;13.65;;
14076;SDS011;7114;51.100;13.998;2022-10-16T02:00:51;27.20;;;13.27;;
14076;SDS011;7114;51.100;13.998;2022-10-16T02:03:20;26.75;;;13.20;;
14076;SDS011;7114;51.100;13.998;2022-10-16T02:05:47;29.05;;;13.93;;
14076;SDS011;7114;51.100;13.998;2022-10-16T02:08:15;27.57;;;13.27;;
14076;SDS011;7114;51.100;13.998;2022-10-16T02:10:42;27.60;;;13.48;;
14076;SDS011;7114;51.100;13.998;2022-10-16T02:13:09;25.48;;;13.05;;
14076;SDS011;7114;51.100;13.998;2022-10-16T02:15:39;24.65;;;13.07;;
14076;SDS011;7114;51.100;13.998;2022-10-16T02:18:05;25.50;;;12.60;;
14076;SDS011;7114;51.100;13.998;2022-10-16T02:20:36;26.00;;;12.97;;
14076;SDS011;7114;51.100;13.998;2022-10-16T02:23:07;24.98;;;12.50;;
14076;SDS011;7114;51.100;13.998;2022-10-16T02:25:40;25.08;;;12.30;;
14076;SDS011;7114;51.100;13.998;2022-10-16T02:28:07;25.95;;;12.82;;
14076;SDS011;7114;51.100;13.998;2022-10-16T02:30:38;24.83;;;11.75;;
14076;SDS011;7114;51.100;13.998;2022-10-16T02:33:07;24.97;;;12.30;;
14076;SDS011;7114;51.100;13.998;2022-10-16T02:35:37;23.55;;;12.48;;
14076;SDS011;7114;51.100;13.998;2022-10-16T02:38:03;25.20;;;11.95;;
14076;SDS011;7114;51.100;13.998;2022-10-16T02:40:30;24.85;;;12.20;;
14076;SDS011;7114;51.100;13.998;2022-10-16T02:42:57;23.30;;;11.63;;
14076;SDS011;7114;51.100;13.998;2022-10-16T02:45:23;23.53;;;11.40;;
14076;SDS011;7114;51.100;13.998;2022-10-16T02:47:50;25.15;;;12.00;;
14076;SDS011;7114;51.100;13.998;2022-10-16T02:50:17;25.50;;;12.07;;
14076;SDS011;7114;51.100;13.998;2022-10-16T02:52:44;25.30;;;11.13;;
14076;SDS011;7114;51.100;13.998;2022-10-16T02:55:11;24.20;;;11.27;;
14076;SDS011;7114;51.100;13.998;2022-10-16T02:57:37;22.60;;;11.40;;
14076;SDS011;7114;51.100;13.998;2022-10-16T03:00:05;21.75;;;11.13;;
14076;SDS011;7114;51.100;13.998;2022-10-16T03:02:33;22.65;;;11.15;;
14076;SDS011;7114;51.100;13.998;2022-10-16T03:04:59;21.88;;;11.13;;
14076;SDS011;7114;51.100;13.998;2022-10-16T03:07:26;21.90;;;11.52;;
14076;SDS011;7114;51.100;13.998;2022-10-16T03:09:53;22.00;;;11.30;;
14076;SDS011;7114;51.100;13.998;2022-10-16T03:12:20;21.75;;;11.45;;
14076;SDS011;7114;51.100;13.998;2022-10-16T03:14:46;21.75;;;11.40;;
14076;SDS011;7114;51.100;13.998;2022-10-16T03:17:13;20.90;;;11.05;;
14076;SDS011;7114;51.100;13.998;2022-10-16T03:19:41;21.20;;;11.30;;
14076;SDS011;7114;51.100;13.998;2022-10-16T03:22:08;20.73;;;10.90;;
14076;SDS011;7114;51.100;13.998;2022-10-16T03:24:34;20.10;;;11.52;;
14076;SDS011;7114;51.100;13.998;2022-10-16T03:27:02;21.83;;;11.40;;
14076;SDS011;7114;51.100;13.998;2022-10-16T03:29:28;20.77;;;11.07;;
14076;SDS011;7114;51.100;13.998;2022-10-16T03:31:55;21.27;;;10.82;;
14076;SDS011;7114;51.100;13.998;2022-10-16T03:34:21;21.30;;;10.93;;
14076;SDS011;7114;51.100;13.998;2022-10-16T03:36:48;19.70;;;10.82;;
14076;SDS011;7114;51.100;13.998;2022-10-16T03:39:14;19.83;;;10.90;;
14076;SDS011;7114;51.100;13.998;2022-10-16T03:41:40;21.48;;;10.85;;
14076;SDS011;7114;51.100;13.998;2022-10-16T03:44:08;20.20;;;11.07;;
14076;SDS011;7114;51.100;13.998;2022-10-16T03:46:35;19.83;;;10.80;;
14076;SDS011;7114;51.100;13.998;2022-10-16T03:49:01;20.08;;;10.68;;
14076;SDS011;7114;51.100;13.998;2022-10-16T03:51:27;19.63;;;10.57;;
14076;SDS011;7114;51.100;13.998;2022-10-16T03:53:54;19.23;;;10.82;;
14076;SDS011;7114;51.100;13.998;2022-10-16T03:56:20;19.77;;;10.95;;
14076;SDS011;7114;51.100;13.998;2022-10-16T03:58:47;19.20;;;10.47;;
14076;SDS011;7114;51.100;13.998;2022-10-16T04:01:14;18.90;;;10.85;;
14076;SDS011;7114;51.100;13.998;2022-10-16T04:03:41;21.00;;;10.63;;
14076;SDS011;7114;51.100;13.998;2022-10-16T04:06:07;20.40;;;10.93;;
14076;SDS011;7114;51.100;13.998;2022-10-16T04:08:33;18.60;;;10.40;;
14076;SDS011;7114;51.100;13.998;2022-10-16T04:11:01;18.13;;;10.07;;
14076;SDS011;7114;51.100;13.998;2022-10-16T04:13:28;17.90;;;10.15;;
14076;SDS011;7114;51.100;13.998;2022-10-16T04:15:55;18.67;;;10.15;;
14076;SDS011;7114;51.100;13.998;2022-10-16T04:18:22;19.60;;;10.30;;
14076;SDS011;7114;51.100;13.998;2022-10-16T04:20:52;18.77;;;10.02;;
14076;SDS011;7114;51.100;13.998;2022-10-16T04:23:18;19.70;;;10.13;;
14076;SDS011;7114;51.100;13.998;2022-10-16T04:25:44;17.73;;;9.93;;
14076;SDS011;7114;51.100;13.998;2022-10-16T04:28:11;18.00;;;10.23;;
14076;SDS011;7114;51.100;13.998;2022-10-16T04:30:38;18.35;;;10.50;;
14076;SDS011;7114;51.100;13.998;2022-10-16T04:33:04;18.80;;;10.07;;
14076;SDS011;7114;51.100;13.998;2022-10-16T04:35:32;19.43;;;10.77;;
14076;SDS011;7114;51.100;13.998;2022-10-16T04:37:58;18.05;;;9.65;;
14076;SDS011;7114;51.100;13.998;2022-10-16T04:40:25;19.30;;;10.25;;
14076;SDS011;7114;51.100;13.998;2022-10-16T04:42:51;18.05;;;9.98;;
14076;SDS011;7114;51.100;13.998;2022-10-16T04:45:18;19.42;;;9.63;;
14076;SDS011;7114;51.100;13.998;2022-10-16T04:47:44;18.30;;;9.93;;
14076;SDS011;7114;51.100;13.998;2022-10-16T04:50:10;18.25;;;9.63;;
14076;SDS011;7114;51.100;13.998;2022-10-16T04:52:38;18.83;;;10.05;;
14076;SDS011;7114;51.100;13.998;2022-10-16T04:55:05;18.65;;;9.38;;
14076;SDS011;7114;51.100;13.998;2022-10-16T04:57:32;18.00;;;9.07;;
14076;SDS011;7114;51.100;13.998;2022-10-16T04:59:59;17.03;;;9.00;;
14076;SDS011;7114;51.100;13.998;2022-10-16T05:02:25;17.42;;;9.35;;
14076;SDS011;7114;51.100;13.998;2022-10-16T05:04:52;17.98;;;8.98;;
14076;SDS011;7114;51.100;13.998;2022-10-16T05:07:18;17.77;;;9.90;;
14076;SDS011;7114;51.100;13.998;2022-10-16T05:09:46;18.58;;;9.73;;
14076;SDS011;7114;51.100;13.998;2022-10-16T05:12:12;16.50;;;9.33;;
14076;SDS011;7114;51.100;13.998;2022-10-16T05:14:38;19.67;;;10.40;;
14076;SDS011;7114;51.100;13.998;2022-10-16T05:17:05;20.83;;;10.55;;
14076;SDS011;7114;51.100;13.998;2022-10-16T05:19:32;18.95;;;10.25;;
14076;SDS011;7114;51.100;13.998;2022-10-16T05:21:58;18.30;;;10.20;;
14076;SDS011;7114;51.100;13.998;2022-10-16T05:24:25;19.23;;;10.80;;
14076;SDS011;7114;51.100;13.998;2022-10-16T05:26:53;20.30;;;10.50;;
14076;SDS011;7114;51.100;13.998;2022-10-16T05:29:19;22.30;;;11.18;;
14076;SDS011;7114;51.100;13.998;2022-10-16T05:31:46;22.02;;;11.38;;
14076;SDS011;7114;51.100;13.998;2022-10-16T05:34:12;23.65;;;11.30;;
14076;SDS011;7114;51.100;13.998;2022-10-16T05:36:39;23.77;;;11.90;;
14076;SDS011;7114;51.100;13.998;2022-10-16T05:39:05;24.00;;;11.30;;
14076;SDS011;7114;51.100;13.998;2022-10-16T05:41:31;23.73;;;12.38;;
14076;SDS011;7114;51.100;13.998;2022-10-16T05:43:59;25.42;;;12.07;;
14076;SDS011;7114;51.100;13.998;2022-10-16T05:46:25;25.23;;;11.43;;
14076;SDS011;7114;51.100;13.998;2022-10-16T05:48:52;23.47;;;12.00;;
14076;SDS011;7114;51.100;13.998;2022-10-16T05:51:19;23.80;;;11.65;;
14076;SDS011;7114;51.100;13.998;2022-10-16T05:53:45;23.00;;;11.48;;
14076;SDS011;7114;51.100;13.998;2022-10-16T05:56:11;24.45;;;11.98;;
14076;SDS011;7114;51.100;13.998;2022-10-16T05:58:38;21.50;;;11.70;;
14076;SDS011;7114;51.100;13.998;2022-10-16T06:01:07;21.30;;;11.43;;
14076;SDS011;7114;51.100;13.998;2022-10-16T06:03:36;21.90;;;11.63;;
14076;SDS011;7114;51.100;13.998;2022-10-16T06:06:07;21.17;;;11.35;;
14076;SDS011;7114;51.100;13.998;2022-10-16T06:08:33;20.73;;;11.02;;
14076;SDS011;7114;51.100;13.998;2022-10-16T06:11:00;19.10;;;10.50;;
14076;SDS011;7114;51.100;13.998;2022-10-16T06:13:28;19.53;;;11.37;;
14076;SDS011;7114;51.100;13.998;2022-10-16T06:15:56;18.77;;;10.38;;
14076;SDS011;7114;51.100;13.998;2022-10-16T06:18:24;17.20;;;10.20;;
14076;SDS011;7114;51.100;13.998;2022-10-16T06:20:51;15.43;;;9.35;;
14076;SDS011;7114;51.100;13.998;2022-10-16T06:23:17;15.98;;;9.85;;
14076;SDS011;7114;51.100;13.998;2022-10-16T06:25:44;15.17;;;9.13;;
14076;SDS011;7114;51.100;13.998;2022-10-16T06:28:10;13.75;;;8.70;;
14076;SDS011;7114;51.100;13.998;2022-10-16T06:30:36;14.27;;;8.50;;
14076;SDS011;7114;51.100;13.998;2022-10-16T06:33:03;15.27;;;8.93;;
14076;SDS011;7114;51.100;13.998;2022-10-16T06:35:31;14.02;;;8.48;;
14076;SDS011;7114;51.100;13.998;2022-10-16T06:37:57;14.70;;;8.20;;
14076;SDS011;7114;51.100;13.998;2022-10-16T06:40:24;16.50;;;8.38;;
14076;SDS011;7114;51.100;13.998;2022-10-16T06:42:50;14.93;;;8.27;;
14076;SDS011;7114;51.100;13.998;2022-10-16T06:45:17;14.00;;;7.80;;
14076;SDS011;7114;51.100;13.998;2022-10-16T06:47:43;13.25;;;8.18;;
14076;SDS011;7114;51.100;13.998;2022-10-16T06:50:10;17.27;;;8.00;;
14076;SDS011;7114;51.100;13.998;2022-10-16T06:52:37;13.50;;;8.13;;
14076;SDS011;7114;51.100;13.998;2022-10-16T06:55:04;13.05;;;7.57;;
14076;SDS011;7114;51.100;13.998;2022-10-16T06:57:31;13.90;;;7.78;;
14076;SDS011;7114;51.100;13.998;2022-10-16T06:59:57;13.02;;;7.72;;
14076;SDS011;7114;51.100;13.998;2022-10-16T07:02:24;12.07;;;7.50;;
14076;SDS011;7114;51.100;13.998;2022-10-16T07:04:50;13.55;;;7.78;;
14076;SDS011;7114;51.100;13.998;2022-10-16T07:07:16;14.63;;;7.85;;
14076;SDS011;7114;51.100;13.998;2022-10-16T07:09:44;13.63;;;8.00;;
14076;SDS011;7114;51.100;13.998;2022-10-16T07:12:10;12.27;;;7.63;;
14076;SDS011;7114;51.100;13.998;2022-10-16T07:14:37;11.90;;;7.50;;
14076;SDS011;7114;51.100;13.998;2022-10-16T07:17:03;14.07;;;7.60;;
14076;SDS011;7114;51.100;13.998;2022-10-16T07:19:29;12.38;;;7.40;;
14076;SDS011;7114;51.100;13.998;2022-10-16T07:21:56;11.75;;;7.18;;
14076;SDS011;7114;51.100;13.998;2022-10-16T07:24:22;14.18;;;7.35;;
14076;SDS011;7114;51.100;13.998;2022-10-16T07:26:51;11.27;;;7.37;;
14076;SDS011;7114;51.100;13.998;2022-10-16T07:29:18;12.27;;;7.47;;
14076;SDS011;7114;51.100;13.998;2022-10-16T07:31:45;11.65;;;6.88;;
14076;SDS011;7114;51.100;13.998;2022-10-16T07:34:13;12.88;;;7.07;;
14076;SDS011;7114;51.100;13.998;2022-10-16T07:36:40;12.27;;;7.13;;
14076;SDS011;7114;51.100;13.998;2022-10-16T07:39:06;11.70;;;7.20;;
14076;SDS011;7114;51.100;13.998;2022-10-16T07:41:33;11.77;;;6.93;;
14076;SDS011;7114;51.100;13.998;2022-10-16T07:44:03;11.05;;;7.10;;
14076;SDS011;7114;51.100;13.998;2022-10-16T07:46:30;10.73;;;6.88;;
14076;SDS011;7114;51.100;13.998;2022-10-16T07:48:56;11.73;;;7.15;;
14076;SDS011;7114;51.100;13.998;2022-10-16T07:51:23;13.57;;;7.97;;
14076;SDS011;7114;51.100;13.998;2022-10-16T07:53:50;14.15;;;8.45;;
14076;SDS011;7114;51.100;13.998;2022-10-16T07:56:18;15.98;;;9.73;;
14076;SDS011;7114;51.100;13.998;2022-10-16T07:58:45;15.48;;;9.75;;
14076;SDS011;7114;51.100;13.998;2022-10-16T08:01:14;14.95;;;8.85;;
14076;SDS011;7114;51.100;13.998;2022-10-16T08:03:41;14.27;;;7.80;;
14076;SDS011;7114;51.100;13.998;2022-10-16T08:06:07;11.55;;;7.03;;
14076;SDS011;7114;51.100;13.998;2022-10-16T08:08:34;11.45;;;6.72;;
14076;SDS011;7114;51.100;13.998;2022-10-16T08:11:00;11.70;;;6.68;;
14076;SDS011;7114;51.100;13.998;2022-10-16T08:13:28;11.82;;;6.90;;
14076;SDS011;7114;51.100;13.998;2022-10-16T08:15:55;11.33;;;6.90;;
14076;SDS011;7114;51.100;13.998;2022-10-16T08:18:23;12.23;;;7.35;;
14076;SDS011;7114;51.100;13.998;2022-10-16T08:20:54;11.32;;;7.00;;
14076;SDS011;7114;51.100;13.998;2022-10-16T08:23:21;10.95;;;6.82;;
14076;SDS011;7114;51.100;13.998;2022-10-16T08:25:47;12.00;;;6.50;;
14076;SDS011;7114;51.100;13.998;2022-10-16T08:28:14;11.23;;;6.53;;
14076;SDS011;7114;51.100;13.998;2022-10-16T08:30:41;10.20;;;6.30;;
14076;SDS011;7114;51.100;13.998;2022-10-16T08:33:08;10.43;;;6.75;;
14076;SDS011;7114;51.100;13.998;2022-10-16T08:35:35;11.20;;;6.10;;
14076;SDS011;7114;51.100;13.998;2022-10-16T08:38:02;11.23;;;5.78;;
14076;SDS011;7114;51.100;13.998;2022-10-16T08:40:30;10.70;;;6.83;;
14076;SDS011;7114;51.100;13.998;2022-10-16T08:43:05;11.45;;;7.10;;
14076;SDS011;7114;51.100;13.998;2022-10-16T08:45:44;11.35;;;6.60;;
14076;SDS011;7114;51.100;13.998;2022-10-16T08:48:19;10.95;;;6.78;;
14076;SDS011;7114;51.100;13.998;2022-10-16T08:50:49;9.15;;;5.90;;
14076;SDS011;7114;51.100;13.998;2022-10-16T08:53:19;9.53;;;6.17;;
14076;SDS011;7114;51.100;13.998;2022-10-16T08:55:52;9.88;;;5.75;;
14076;SDS011;7114;51.100;13.998;2022-10-16T08:58:19;10.73;;;6.40;;
14076;SDS011;7114;51.100;13.998;2022-10-16T09:00:47;11.57;;;6.68;;
14076;SDS011;7114;51.100;13.998;2022-10-16T09:03:17;10.23;;;6.30;;
14076;SDS011;7114;51.100;13.998;2022-10-16T09:08:56;9.70;;;6.05;;
14076;SDS011;7114;51.100;13.998;2022-10-16T09:11:32;10.30;;;6.10;;
14076;SDS011;7114;51.100;13.998;2022-10-16T09:14:06;9.15;;;5.50;;
14076;SDS011;7114;51.100;13.998;2022-10-16T09:16:41;8.57;;;5.20;;
14076;SDS011;7114;51.100;13.998;2022-10-16T09:19:12;8.50;;;5.53;;
14076;SDS011;7114;51.100;13.998;2022-10-16T09:21:43;11.48;;;6.03;;
14076;SDS011;7114;51.100;13.998;2022-10-16T09:24:13;8.82;;;6.00;;
14076;SDS011;7114;51.100;13.998;2022-10-16T09:26:41;10.48;;;7.00;;
14076;SDS011;7114;51.100;13.998;2022-10-16T09:29:08;10.40;;;6.53;;
14076;SDS011;7114;51.100;13.998;2022-10-16T09:31:36;9.90;;;6.57;;
14076;SDS011;7114;51.100;13.998;2022-10-16T09:34:03;10.98;;;6.88;;
14076;SDS011;7114;51.100;13.998;2022-10-16T09:36:31;11.60;;;6.78;;
14076;SDS011;7114;51.100;13.998;2022-10-16T09:39:10;8.88;;;5.90;;
14076;SDS011;7114;51.100;13.998;2022-10-16T09:41:37;9.15;;;6.68;;
14076;SDS011;7114;51.100;13.998;2022-10-16T09:44:06;11.47;;;6.50;;
14076;SDS011;7114;51.100;13.998;2022-10-16T09:46:44;11.73;;;6.47;;
14076;SDS011;7114;51.100;13.998;2022-10-16T09:49:18;10.60;;;6.10;;
14076;SDS011;7114;51.100;13.998;2022-10-16T09:51:48;9.10;;;6.00;;
14076;SDS011;7114;51.100;13.998;2022-10-16T09:54:16;8.98;;;6.20;;
14076;SDS011;7114;51.100;13.998;2022-10-16T09:56:44;9.47;;;5.87;;
14076;SDS011;7114;51.100;13.998;2022-10-16T09:59:14;8.32;;;5.97;;
14076;SDS011;7114;51.100;13.998;2022-10-16T10:01:42;8.80;;;5.40;;
14076;SDS011;7114;51.100;13.998;2022-10-16T10:04:11;10.77;;;5.65;;
14076;SDS011;7114;51.100;13.998;2022-10-16T10:06:40;8.88;;;5.30;;
14076;SDS011;7114;51.100;13.998;2022-10-16T10:09:16;8.33;;;4.90;;
14076;SDS011;7114;51.100;13.998;2022-10-16T10:11:45;7.20;;;4.57;;
14076;SDS011;7114;51.100;13.998;2022-10-16T10:14:24;8.27;;;4.63;;
14076;SDS011;7114;51.100;13.998;2022-10-16T10:17:01;7.45;;;4.40;;
14076;SDS011;7114;51.100;13.998;2022-10-16T10:19:39;8.55;;;3.95;;
14076;SDS011;7114;51.100;13.998;2022-10-16T10:22:16;7.73;;;3.80;;
14076;SDS011;7114;51.100;13.998;2022-10-16T10:24:46;7.53;;;4.22;;
14076;SDS011;7114;51.100;13.998;2022-10-16T10:27:20;6.85;;;4.10;;
14076;SDS011;7114;51.100;13.998;2022-10-16T10:29:52;8.50;;;3.80;;
14076;SDS011;7114;51.100;13.998;2022-10-16T10:32:24;7.55;;;4.15;;
14076;SDS011;7114;51.100;13.998;2022-10-16T10:34:57;6.80;;;4.40;;
14076;SDS011;7114;51.100;13.998;2022-10-16T10:37:37;7.60;;;4.43;;
14076;SDS011;7114;51.100;13.998;2022-10-16T10:40:27;8.40;;;4.18;;
14076;SDS011;7114;51.100;13.998;2022-10-16T10:42:57;8.80;;;4.07;;
14076;SDS011;7114;51.100;13.998;2022-10-16T10:45:27;6.93;;;3.88;;
14076;SDS011;7114;51.100;13.998;2022-10-16T10:47:58;6.70;;;3.93;;
14076;SDS011;7114;51.100;13.998;2022-10-16T10:50:30;6.30;;;3.65;;
14076;SDS011;7114;51.100;13.998;2022-10-16T10:53:05;7.93;;;3.33;;
14076;SDS011;7114;51.100;13.998;2022-10-16T10:55:39;5.93;;;3.00;;
14076;SDS011;7114;51.100;13.998;2022-10-16T10:58:17;6.45;;;3.60;;
14076;SDS011;7114;51.100;13.998;2022-10-16T11:00:53;6.93;;;3.23;;
14076;SDS011;7114;51.100;13.998;2022-10-16T11:03:27;7.22;;;3.67;;
14076;SDS011;7114;51.100;13.998;2022-10-16T11:06:01;6.72;;;3.65;;
14076;SDS011;7114;51.100;13.998;2022-10-16T11:08:32;6.80;;;3.70;;
14076;SDS011;7114;51.100;13.998;2022-10-16T11:11:03;7.13;;;3.95;;
14076;SDS011;7114;51.100;13.998;2022-10-16T11:13:32;6.63;;;3.60;;
14076;SDS011;7114;51.100;13.998;2022-10-16T11:16:02;7.22;;;3.80;;
14076;SDS011;7114;51.100;13.998;2022-10-16T11:18:33;7.65;;;4.43;;
14076;SDS011;7114;51.100;13.998;2022-10-16T11:21:07;6.40;;;3.97;;
14076;SDS011;7114;51.100;13.998;2022-10-16T11:23:37;7.70;;;4.40;;
14076;SDS011;7114;51.100;13.998;2022-10-16T11:26:10;7.20;;;4.53;;
14076;SDS011;7114;51.100;13.998;2022-10-16T11:28:41;7.75;;;4.80;;
14076;SDS011;7114;51.100;13.998;2022-10-16T11:31:13;7.28;;;4.63;;
14076;SDS011;7114;51.100;13.998;2022-10-16T11:33:42;8.57;;;4.82;;
14076;SDS011;7114;51.100;13.998;2022-10-16T11:36:12;8.27;;;4.65;;
14076;SDS011;7114;51.100;13.998;2022-10-16T11:38:42;8.00;;;5.07;;
14076;SDS011;7114;51.100;13.998;2022-10-16T11:41:15;6.93;;;4.80;;
14076;SDS011;7114;51.100;13.998;2022-10-16T11:43:48;9.63;;;4.93;;
14076;SDS011;7114;51.100;13.998;2022-10-16T11:46:17;7.53;;;4.60;;
14076;SDS011;7114;51.100;13.998;2022-10-16T11:48:46;7.30;;;5.03;;
14076;SDS011;7114;51.100;13.998;2022-10-16T11:51:16;7.40;;;4.70;;
14076;SDS011;7114;51.100;13.998;2022-10-16T11:53:49;7.97;;;4.50;;
14076;SDS011;7114;51.100;13.998;2022-10-16T11:56:21;7.70;;;4.90;;
14076;SDS011;7114;51.100;13.998;2022-10-16T11:58:51;7.18;;;4.90;;
14076;SDS011;7114;51.100;13.998;2022-10-16T12:01:22;9.75;;;4.65;;
14076;SDS011;7114;51.100;13.998;2022-10-16T12:03:58;8.80;;;4.97;;
14076;SDS011;7114;51.100;13.998;2022-10-16T12:06:32;9.18;;;4.82;;
14076;SDS011;7114;51.100;13.998;2022-10-16T12:09:02;8.65;;;4.60;;
14076;SDS011;7114;51.100;13.998;2022-10-16T12:11:35;7.55;;;4.28;;
14076;SDS011;7114;51.100;13.998;2022-10-16T12:14:04;7.15;;;4.43;;
14076;SDS011;7114;51.100;13.998;2022-10-16T12:16:33;6.83;;;4.50;;
14076;SDS011;7114;51.100;13.998;2022-10-16T12:19:03;7.60;;;4.82;;
14076;SDS011;7114;51.100;13.998;2022-10-16T12:21:37;8.57;;;4.75;;
14076;SDS011;7114;51.100;13.998;2022-10-16T12:24:03;8.88;;;4.63;;
14076;SDS011;7114;51.100;13.998;2022-10-16T12:26:31;8.75;;;4.97;;
14076;SDS011;7114;51.100;13.998;2022-10-16T12:29:11;8.20;;;3.77;;
14076;SDS011;7114;51.100;13.998;2022-10-16T12:31:44;7.85;;;3.90;;
14076;SDS011;7114;51.100;13.998;2022-10-16T12:34:14;6.22;;;3.33;;
14076;SDS011;7114;51.100;13.998;2022-10-16T12:36:47;5.90;;;2.95;;
14076;SDS011;7114;51.100;13.998;2022-10-16T12:39:19;6.55;;;2.22;;
14076;SDS011;7114;51.100;13.998;2022-10-16T12:41:46;4.00;;;1.00;;
14076;SDS011;7114;51.100;13.998;2022-10-16T12:44:21;5.00;;;1.15;;
14076;SDS011;7114;51.100;13.998;2022-10-16T12:46:49;3.40;;;0.80;;
14076;SDS011;7114;51.100;13.998;2022-10-16T12:49:21;4.22;;;1.10;;
14076;SDS011;7114;51.100;13.998;2022-10-16T12:51:49;4.00;;;0.90;;
14076;SDS011;7114;51.100;13.998;2022-10-16T12:54:16;3.87;;;0.80;;
14076;SDS011;7114;51.100;13.998;2022-10-16T12:56:49;4.68;;;1.05;;
14076;SDS011;7114;51.100;13.998;2022-10-16T12:59:25;4.05;;;0.90;;
14076;SDS011;7114;51.100;13.998;2022-10-16T13:02:02;5.03;;;0.90;;
14076;SDS011;7114;51.100;13.998;2022-10-16T13:04:40;4.40;;;0.90;;
14076;SDS011;7114;51.100;13.998;2022-10-16T13:07:17;3.70;;;1.10;;
14076;SDS011;7114;51.100;13.998;2022-10-16T13:09:53;4.50;;;1.05;;
14076;SDS011;7114;51.100;13.998;2022-10-16T13:12:28;4.88;;;0.80;;
14076;SDS011;7114;51.100;13.998;2022-10-16T13:15:11;4.32;;;0.90;;
14076;SDS011;7114;51.100;13.998;2022-10-16T13:17:47;3.45;;;0.77;;
14076;SDS011;7114;51.100;13.998;2022-10-16T13:20:20;4.07;;;0.80;;
14076;SDS011;7114;51.100;13.998;2022-10-16T13:22:51;4.65;;;0.70;;
14076;SDS011;7114;51.100;13.998;2022-10-16T13:25:23;3.92;;;0.80;;
14076;SDS011;7114;51.100;13.998;2022-10-16T13:27:55;4.82;;;0.70;;
14076;SDS011;7114;51.100;13.998;2022-10-16T13:30:25;3.83;;;0.70;;
14076;SDS011;7114;51.100;13.998;2022-10-16T13:32:54;4.73;;;0.90;;
14076;SDS011;7114;51.100;13.998;2022-10-16T13:35:27;6.28;;;0.93;;
14076;SDS011;7114;51.100;13.998;2022-10-16T13:38:11;7.63;;;0.90;;
14076;SDS011;7114;51.100;13.998;2022-10-16T13:40:48;8.52;;;1.05;;
14076;SDS011;7114;51.100;13.998;2022-10-16T13:43:16;4.47;;;1.00;;
14076;SDS011;7114;51.100;13.998;2022-10-16T13:45:53;4.63;;;0.90;;
14076;SDS011;7114;51.100;13.998;2022-10-16T13:48:23;3.90;;;0.90;;
14076;SDS011;7114;51.100;13.998;2022-10-16T13:50:58;4.57;;;0.70;;
14076;SDS011;7114;51.100;13.998;2022-10-16T13:53:32;5.45;;;0.80;;
14076;SDS011;7114;51.100;13.998;2022-10-16T13:56:00;6.28;;;1.02;;
14076;SDS011;7114;51.100;13.998;2022-10-16T13:58:28;3.10;;;0.70;;
14076;SDS011;7114;51.100;13.998;2022-10-16T14:00:56;8.15;;;0.95;;
14076;SDS011;7114;51.100;13.998;2022-10-16T14:03:23;3.85;;;1.02;;
14076;SDS011;7114;51.100;13.998;2022-10-16T14:05:51;5.20;;;0.70;;
14076;SDS011;7114;51.100;13.998;2022-10-16T14:08:19;5.43;;;0.90;;
14076;SDS011;7114;51.100;13.998;2022-10-16T14:10:47;6.77;;;0.80;;
14076;SDS011;7114;51.100;13.998;2022-10-16T14:13:15;4.03;;;0.60;;
14076;SDS011;7114;51.100;13.998;2022-10-16T14:15:45;3.88;;;0.80;;
14076;SDS011;7114;51.100;13.998;2022-10-16T14:18:16;4.88;;;0.90;;
14076;SDS011;7114;51.100;13.998;2022-10-16T14:20:45;8.32;;;2.88;;
14076;SDS011;7114;51.100;13.998;2022-10-16T14:23:19;12.03;;;2.40;;
14076;SDS011;7114;51.100;13.998;2022-10-16T14:25:47;9.57;;;2.65;;
14076;SDS011;7114;51.100;13.998;2022-10-16T14:28:15;9.60;;;3.08;;
14076;SDS011;7114;51.100;13.998;2022-10-16T14:30:48;7.65;;;2.80;;
14076;SDS011;7114;51.100;13.998;2022-10-16T14:33:24;8.63;;;2.92;;
14076;SDS011;7114;51.100;13.998;2022-10-16T14:35:59;7.80;;;2.80;;
14076;SDS011;7114;51.100;13.998;2022-10-16T14:38:28;8.25;;;2.72;;
14076;SDS011;7114;51.100;13.998;2022-10-16T14:40:54;7.45;;;2.10;;
14076;SDS011;7114;51.100;13.998;2022-10-16T14:43:24;5.82;;;1.98;;
14076;SDS011;7114;51.100;13.998;2022-10-16T14:45:55;5.90;;;1.58;;
14076;SDS011;7114;51.100;13.998;2022-10-16T14:48:24;8.87;;;1.27;;